sensor_id;sensor_type;location;lat;lon;timestamp;P1;durP1;ratioP1;P2;durP2;ratioP2
74487;SDS011;63019;51.080;13.642;2023-02-28T00:00:13;7.43;;;3.47;;
74487;SDS011;63019;51.080;13.642;2023-02-28T00:01:17;10.52;;;3.78;;
74487;SDS011;63019;51.080;13.642;2023-02-28T00:02:20;6.35;;;3.17;;
74487;SDS011;63019;51.080;13.642;2023-02-28T00:03:23;9.60;;;3.70;;
74487;SDS011;63019;51.080;13.642;2023-02-28T00:04:25;8.30;;;3.55;;
74487;SDS011;63019;51.080;13.642;2023-02-28T00:05:30;6.97;;;3.15;;
74487;SDS011;63019;51.080;13.642;2023-02-28T00:06:34;8.18;;;3.42;;
74487;SDS011;63019;51.080;13.642;2023-02-28T00:07:37;6.40;;;3.00;;
74487;SDS011;63019;51.080;13.642;2023-02-28T00:08:40;10.55;;;3.72;;
74487;SDS011;63019;51.080;13.642;2023-02-28T00:09:42;6.45;;;3.10;;
74487;SDS011;63019;51.080;13.642;2023-02-28T00:10:44;5.57;;;2.70;;
74487;SDS011;63019;51.080;13.642;2023-02-28T00:11:47;10.23;;;2.90;;
74487;SDS011;63019;51.080;13.642;2023-02-28T00:12:50;7.60;;;2.88;;
74487;SDS011;63019;51.080;13.642;2023-02-28T00:13:54;7.90;;;2.80;;
74487;SDS011;63019;51.080;13.642;2023-02-28T00:14:56;8.48;;;2.85;;
74487;SDS011;63019;51.080;13.642;2023-02-28T00:15:59;7.22;;;3.38;;
74487;SDS011;63019;51.080;13.642;2023-02-28T00:17:06;5.78;;;2.72;;
74487;SDS011;63019;51.080;13.642;2023-02-28T00:18:09;7.38;;;2.80;;
74487;SDS011;63019;51.080;13.642;2023-02-28T00:19:11;4.97;;;2.70;;
74487;SDS011;63019;51.080;13.642;2023-02-28T00:20:15;5.82;;;2.50;;
74487;SDS011;63019;51.080;13.642;2023-02-28T00:21:18;9.05;;;2.50;;
74487;SDS011;63019;51.080;13.642;2023-02-28T00:22:22;9.45;;;2.80;;
74487;SDS011;63019;51.080;13.642;2023-02-28T00:23:26;5.55;;;2.75;;
74487;SDS011;63019;51.080;13.642;2023-02-28T00:24:28;8.97;;;3.03;;
74487;SDS011;63019;51.080;13.642;2023-02-28T00:25:31;7.55;;;2.83;;
74487;SDS011;63019;51.080;13.642;2023-02-28T00:26:33;9.15;;;3.20;;
74487;SDS011;63019;51.080;13.642;2023-02-28T00:27:36;6.72;;;2.40;;
74487;SDS011;63019;51.080;13.642;2023-02-28T00:28:39;6.03;;;3.10;;
74487;SDS011;63019;51.080;13.642;2023-02-28T00:29:42;9.50;;;2.90;;
74487;SDS011;63019;51.080;13.642;2023-02-28T00:30:44;6.78;;;2.83;;
74487;SDS011;63019;51.080;13.642;2023-02-28T00:31:47;9.90;;;3.08;;
74487;SDS011;63019;51.080;13.642;2023-02-28T00:32:50;7.22;;;2.80;;
74487;SDS011;63019;51.080;13.642;2023-02-28T00:33:52;7.80;;;2.83;;
74487;SDS011;63019;51.080;13.642;2023-02-28T00:34:56;5.30;;;2.50;;
74487;SDS011;63019;51.080;13.642;2023-02-28T00:36:02;9.43;;;2.67;;
74487;SDS011;63019;51.080;13.642;2023-02-28T00:37:10;8.25;;;2.42;;
74487;SDS011;63019;51.080;13.642;2023-02-28T00:38:16;6.07;;;2.35;;
74487;SDS011;63019;51.080;13.642;2023-02-28T00:39:18;6.82;;;2.70;;
74487;SDS011;63019;51.080;13.642;2023-02-28T00:40:21;12.32;;;2.50;;
74487;SDS011;63019;51.080;13.642;2023-02-28T00:41:24;8.93;;;2.63;;
74487;SDS011;63019;51.080;13.642;2023-02-28T00:42:27;8.77;;;2.50;;
74487;SDS011;63019;51.080;13.642;2023-02-28T00:43:31;7.68;;;2.88;;
74487;SDS011;63019;51.080;13.642;2023-02-28T00:44:34;5.88;;;2.90;;
74487;SDS011;63019;51.080;13.642;2023-02-28T00:45:39;7.17;;;2.63;;
74487;SDS011;63019;51.080;13.642;2023-02-28T00:46:41;7.43;;;2.95;;
74487;SDS011;63019;51.080;13.642;2023-02-28T00:47:44;6.25;;;2.85;;
74487;SDS011;63019;51.080;13.642;2023-02-28T00:48:48;5.38;;;2.88;;
74487;SDS011;63019;51.080;13.642;2023-02-28T00:49:51;6.47;;;2.70;;
74487;SDS011;63019;51.080;13.642;2023-02-28T00:50:55;5.93;;;2.63;;
74487;SDS011;63019;51.080;13.642;2023-02-28T00:51:59;5.32;;;2.55;;
74487;SDS011;63019;51.080;13.642;2023-02-28T00:53:01;7.93;;;2.45;;
74487;SDS011;63019;51.080;13.642;2023-02-28T00:54:04;5.18;;;2.70;;
74487;SDS011;63019;51.080;13.642;2023-02-28T00:55:06;5.63;;;2.65;;
74487;SDS011;63019;51.080;13.642;2023-02-28T00:56:09;5.80;;;2.60;;
74487;SDS011;63019;51.080;13.642;2023-02-28T00:57:11;5.85;;;2.58;;
74487;SDS011;63019;51.080;13.642;2023-02-28T00:58:14;7.38;;;2.40;;
74487;SDS011;63019;51.080;13.642;2023-02-28T00:59:17;6.68;;;2.60;;
74487;SDS011;63019;51.080;13.642;2023-02-28T01:00:20;6.10;;;2.58;;
74487;SDS011;63019;51.080;13.642;2023-02-28T01:01:23;7.57;;;2.78;;
74487;SDS011;63019;51.080;13.642;2023-02-28T01:02:25;6.25;;;2.72;;
74487;SDS011;63019;51.080;13.642;2023-02-28T01:03:28;6.85;;;2.97;;
74487;SDS011;63019;51.080;13.642;2023-02-28T01:04:31;11.80;;;2.85;;
74487;SDS011;63019;51.080;13.642;2023-02-28T01:05:33;6.55;;;3.00;;
74487;SDS011;63019;51.080;13.642;2023-02-28T01:06:36;7.53;;;3.10;;
74487;SDS011;63019;51.080;13.642;2023-02-28T01:07:38;10.88;;;2.92;;
74487;SDS011;63019;51.080;13.642;2023-02-28T01:08:41;7.70;;;3.00;;
74487;SDS011;63019;51.080;13.642;2023-02-28T01:09:45;8.13;;;2.80;;
74487;SDS011;63019;51.080;13.642;2023-02-28T01:10:47;5.70;;;2.63;;
74487;SDS011;63019;51.080;13.642;2023-02-28T01:11:50;10.55;;;2.92;;
74487;SDS011;63019;51.080;13.642;2023-02-28T01:12:53;7.00;;;2.70;;
74487;SDS011;63019;51.080;13.642;2023-02-28T01:13:55;6.78;;;2.58;;
74487;SDS011;63019;51.080;13.642;2023-02-28T01:14:58;9.55;;;2.97;;
74487;SDS011;63019;51.080;13.642;2023-02-28T01:16:01;4.57;;;2.55;;
74487;SDS011;63019;51.080;13.642;2023-02-28T01:17:04;7.63;;;2.63;;
74487;SDS011;63019;51.080;13.642;2023-02-28T01:18:06;5.85;;;2.60;;
74487;SDS011;63019;51.080;13.642;2023-02-28T01:19:09;5.72;;;2.50;;
74487;SDS011;63019;51.080;13.642;2023-02-28T01:20:12;5.43;;;2.70;;
74487;SDS011;63019;51.080;13.642;2023-02-28T01:21:15;5.15;;;2.50;;
74487;SDS011;63019;51.080;13.642;2023-02-28T01:22:19;6.05;;;2.63;;
74487;SDS011;63019;51.080;13.642;2023-02-28T01:23:23;4.78;;;2.47;;
74487;SDS011;63019;51.080;13.642;2023-02-28T01:24:26;7.32;;;2.47;;
74487;SDS011;63019;51.080;13.642;2023-02-28T01:25:28;4.35;;;2.53;;
74487;SDS011;63019;51.080;13.642;2023-02-28T01:26:31;6.68;;;2.60;;
74487;SDS011;63019;51.080;13.642;2023-02-28T01:27:34;6.60;;;2.50;;
74487;SDS011;63019;51.080;13.642;2023-02-28T01:28:37;7.70;;;2.80;;
74487;SDS011;63019;51.080;13.642;2023-02-28T01:29:40;9.02;;;2.83;;
74487;SDS011;63019;51.080;13.642;2023-02-28T01:30:42;8.05;;;2.60;;
74487;SDS011;63019;51.080;13.642;2023-02-28T01:31:49;8.98;;;3.10;;
74487;SDS011;63019;51.080;13.642;2023-02-28T01:32:52;5.55;;;2.90;;
74487;SDS011;63019;51.080;13.642;2023-02-28T01:33:54;4.47;;;2.45;;
74487;SDS011;63019;51.080;13.642;2023-02-28T01:34:56;9.77;;;2.80;;
74487;SDS011;63019;51.080;13.642;2023-02-28T01:36:04;8.75;;;2.80;;
74487;SDS011;63019;51.080;13.642;2023-02-28T01:37:15;7.30;;;2.75;;
74487;SDS011;63019;51.080;13.642;2023-02-28T01:38:18;5.93;;;2.50;;
74487;SDS011;63019;51.080;13.642;2023-02-28T01:39:24;5.95;;;2.58;;
74487;SDS011;63019;51.080;13.642;2023-02-28T01:40:27;4.75;;;2.72;;
74487;SDS011;63019;51.080;13.642;2023-02-28T01:41:31;11.80;;;2.58;;
74487;SDS011;63019;51.080;13.642;2023-02-28T01:42:35;6.95;;;2.65;;
74487;SDS011;63019;51.080;13.642;2023-02-28T01:46:21;6.63;;;2.72;;
74487;SDS011;63019;51.080;13.642;2023-02-28T01:47:27;7.15;;;3.33;;
74487;SDS011;63019;51.080;13.642;2023-02-28T01:48:35;7.80;;;2.85;;
74487;SDS011;63019;51.080;13.642;2023-02-28T01:49:40;6.77;;;2.93;;
74487;SDS011;63019;51.080;13.642;2023-02-28T01:50:43;6.70;;;2.92;;
74487;SDS011;63019;51.080;13.642;2023-02-28T01:51:48;8.00;;;3.20;;
74487;SDS011;63019;51.080;13.642;2023-02-28T01:52:54;5.32;;;2.80;;
74487;SDS011;63019;51.080;13.642;2023-02-28T01:53:59;7.47;;;3.17;;
74487;SDS011;63019;51.080;13.642;2023-02-28T01:55:16;6.35;;;2.85;;
74487;SDS011;63019;51.080;13.642;2023-02-28T01:56:23;7.95;;;3.35;;
74487;SDS011;63019;51.080;13.642;2023-02-28T01:57:30;7.20;;;2.70;;
74487;SDS011;63019;51.080;13.642;2023-02-28T01:58:39;9.13;;;3.20;;
74487;SDS011;63019;51.080;13.642;2023-02-28T01:59:43;7.88;;;3.13;;
74487;SDS011;63019;51.080;13.642;2023-02-28T02:00:59;6.40;;;3.00;;
74487;SDS011;63019;51.080;13.642;2023-02-28T02:02:04;7.22;;;3.20;;
74487;SDS011;63019;51.080;13.642;2023-02-28T02:03:08;6.82;;;3.00;;
74487;SDS011;63019;51.080;13.642;2023-02-28T02:04:17;7.15;;;3.33;;
74487;SDS011;63019;51.080;13.642;2023-02-28T02:05:22;7.45;;;3.17;;
74487;SDS011;63019;51.080;13.642;2023-02-28T02:06:34;8.00;;;2.88;;
74487;SDS011;63019;51.080;13.642;2023-02-28T02:07:43;7.00;;;3.42;;
74487;SDS011;63019;51.080;13.642;2023-02-28T02:08:48;7.75;;;3.42;;
74487;SDS011;63019;51.080;13.642;2023-02-28T02:09:56;8.45;;;3.30;;
74487;SDS011;63019;51.080;13.642;2023-02-28T02:11:21;6.35;;;2.42;;
74487;SDS011;63019;51.080;13.642;2023-02-28T02:15:12;7.53;;;3.35;;
74487;SDS011;63019;51.080;13.642;2023-02-28T02:38:38;7.43;;;3.25;;
74487;SDS011;63019;51.080;13.642;2023-02-28T02:41:14;9.40;;;3.25;;
74487;SDS011;63019;51.080;13.642;2023-02-28T02:42:33;7.93;;;2.72;;
74487;SDS011;63019;51.080;13.642;2023-02-28T02:43:46;6.18;;;3.20;;
74487;SDS011;63019;51.080;13.642;2023-02-28T02:44:55;6.35;;;2.80;;
74487;SDS011;63019;51.080;13.642;2023-02-28T02:46:08;8.75;;;3.00;;
74487;SDS011;63019;51.080;13.642;2023-02-28T02:47:18;8.55;;;3.10;;
74487;SDS011;63019;51.080;13.642;2023-02-28T02:48:26;7.05;;;2.83;;
74487;SDS011;63019;51.080;13.642;2023-02-28T02:49:33;11.98;;;3.03;;
74487;SDS011;63019;51.080;13.642;2023-02-28T02:51:11;7.82;;;3.30;;
74487;SDS011;63019;51.080;13.642;2023-02-28T02:52:15;7.17;;;3.17;;
74487;SDS011;63019;51.080;13.642;2023-02-28T02:53:28;7.68;;;3.40;;
74487;SDS011;63019;51.080;13.642;2023-02-28T02:54:37;8.48;;;3.40;;
74487;SDS011;63019;51.080;13.642;2023-02-28T02:55:46;8.30;;;2.95;;
74487;SDS011;63019;51.080;13.642;2023-02-28T02:56:55;7.53;;;3.00;;
74487;SDS011;63019;51.080;13.642;2023-02-28T02:58:07;9.80;;;3.38;;
74487;SDS011;63019;51.080;13.642;2023-02-28T02:59:13;5.85;;;2.83;;
74487;SDS011;63019;51.080;13.642;2023-02-28T03:00:24;5.78;;;3.25;;
74487;SDS011;63019;51.080;13.642;2023-02-28T03:01:34;7.55;;;3.20;;
74487;SDS011;63019;51.080;13.642;2023-02-28T03:02:39;6.15;;;3.03;;
74487;SDS011;63019;51.080;13.642;2023-02-28T03:03:42;7.80;;;3.30;;
74487;SDS011;63019;51.080;13.642;2023-02-28T03:04:46;6.88;;;3.35;;
74487;SDS011;63019;51.080;13.642;2023-02-28T03:05:54;7.63;;;4.30;;
74487;SDS011;63019;51.080;13.642;2023-02-28T03:07:04;8.70;;;3.20;;
74487;SDS011;63019;51.080;13.642;2023-02-28T03:08:06;5.80;;;2.90;;
74487;SDS011;63019;51.080;13.642;2023-02-28T03:09:08;9.65;;;3.60;;
74487;SDS011;63019;51.080;13.642;2023-02-28T03:10:33;7.30;;;3.80;;
74487;SDS011;63019;51.080;13.642;2023-02-28T03:11:41;6.78;;;3.17;;
74487;SDS011;63019;51.080;13.642;2023-02-28T03:12:47;6.90;;;3.03;;
74487;SDS011;63019;51.080;13.642;2023-02-28T03:15:27;7.03;;;2.90;;
74487;SDS011;63019;51.080;13.642;2023-02-28T03:17:58;5.45;;;2.95;;
74487;SDS011;63019;51.080;13.642;2023-02-28T03:19:19;7.65;;;3.10;;
74487;SDS011;63019;51.080;13.642;2023-02-28T03:20:50;7.00;;;3.00;;
74487;SDS011;63019;51.080;13.642;2023-02-28T03:25:21;6.50;;;3.20;;
74487;SDS011;63019;51.080;13.642;2023-02-28T03:26:30;8.75;;;3.15;;
74487;SDS011;63019;51.080;13.642;2023-02-28T03:30:05;7.38;;;2.92;;
74487;SDS011;63019;51.080;13.642;2023-02-28T03:31:17;6.00;;;2.90;;
74487;SDS011;63019;51.080;13.642;2023-02-28T03:32:57;9.85;;;2.97;;
74487;SDS011;63019;51.080;13.642;2023-02-28T03:34:01;9.20;;;3.20;;
74487;SDS011;63019;51.080;13.642;2023-02-28T03:35:21;7.43;;;3.22;;
74487;SDS011;63019;51.080;13.642;2023-02-28T03:36:27;9.60;;;3.30;;
74487;SDS011;63019;51.080;13.642;2023-02-28T03:37:33;9.73;;;3.58;;
74487;SDS011;63019;51.080;13.642;2023-02-28T03:38:40;7.13;;;3.10;;
74487;SDS011;63019;51.080;13.642;2023-02-28T03:39:53;10.07;;;3.35;;
74487;SDS011;63019;51.080;13.642;2023-02-28T03:41:01;6.10;;;3.17;;
74487;SDS011;63019;51.080;13.642;2023-02-28T03:42:09;7.97;;;3.22;;
74487;SDS011;63019;51.080;13.642;2023-02-28T03:43:18;7.90;;;3.20;;
74487;SDS011;63019;51.080;13.642;2023-02-28T03:44:33;12.32;;;3.53;;
74487;SDS011;63019;51.080;13.642;2023-02-28T03:45:40;7.40;;;3.42;;
74487;SDS011;63019;51.080;13.642;2023-02-28T03:46:46;9.05;;;3.20;;
74487;SDS011;63019;51.080;13.642;2023-02-28T03:48:06;8.05;;;3.30;;
74487;SDS011;63019;51.080;13.642;2023-02-28T03:49:53;7.93;;;3.60;;
74487;SDS011;63019;51.080;13.642;2023-02-28T03:50:41;8.82;;;3.42;;
74487;SDS011;63019;51.080;13.642;2023-02-28T03:51:46;9.80;;;3.38;;
74487;SDS011;63019;51.080;13.642;2023-02-28T03:52:53;6.70;;;3.10;;
74487;SDS011;63019;51.080;13.642;2023-02-28T03:54:05;7.55;;;3.60;;
74487;SDS011;63019;51.080;13.642;2023-02-28T03:55:11;7.32;;;3.35;;
74487;SDS011;63019;51.080;13.642;2023-02-28T03:56:26;8.68;;;3.80;;
74487;SDS011;63019;51.080;13.642;2023-02-28T03:59:09;6.68;;;3.15;;
74487;SDS011;63019;51.080;13.642;2023-02-28T04:00:30;8.38;;;3.42;;
74487;SDS011;63019;51.080;13.642;2023-02-28T04:01:36;6.32;;;3.40;;
74487;SDS011;63019;51.080;13.642;2023-02-28T04:02:42;6.88;;;3.08;;
74487;SDS011;63019;51.080;13.642;2023-02-28T04:03:44;9.48;;;3.60;;
74487;SDS011;63019;51.080;13.642;2023-02-28T04:04:46;9.80;;;3.60;;
74487;SDS011;63019;51.080;13.642;2023-02-28T04:05:53;7.88;;;3.67;;
74487;SDS011;63019;51.080;13.642;2023-02-28T04:07:03;10.30;;;3.63;;
74487;SDS011;63019;51.080;13.642;2023-02-28T04:08:07;9.13;;;3.67;;
74487;SDS011;63019;51.080;13.642;2023-02-28T04:09:10;11.02;;;3.67;;
74487;SDS011;63019;51.080;13.642;2023-02-28T04:10:12;8.23;;;3.63;;
74487;SDS011;63019;51.080;13.642;2023-02-28T04:12:23;9.63;;;3.85;;
74487;SDS011;63019;51.080;13.642;2023-02-28T04:13:25;9.50;;;3.58;;
74487;SDS011;63019;51.080;13.642;2023-02-28T04:14:26;8.57;;;3.25;;
74487;SDS011;63019;51.080;13.642;2023-02-28T04:15:28;6.70;;;3.30;;
74487;SDS011;63019;51.080;13.642;2023-02-28T04:16:31;9.60;;;3.70;;
74487;SDS011;63019;51.080;13.642;2023-02-28T04:17:36;7.88;;;3.28;;
74487;SDS011;63019;51.080;13.642;2023-02-28T04:18:38;10.90;;;3.40;;
74487;SDS011;63019;51.080;13.642;2023-02-28T04:19:40;6.85;;;3.30;;
74487;SDS011;63019;51.080;13.642;2023-02-28T04:20:42;7.60;;;3.50;;
74487;SDS011;63019;51.080;13.642;2023-02-28T04:21:45;9.32;;;3.60;;
74487;SDS011;63019;51.080;13.642;2023-02-28T04:22:48;8.85;;;3.40;;
74487;SDS011;63019;51.080;13.642;2023-02-28T04:23:50;7.65;;;4.03;;
74487;SDS011;63019;51.080;13.642;2023-02-28T04:24:51;9.07;;;3.70;;
74487;SDS011;63019;51.080;13.642;2023-02-28T04:25:55;8.87;;;3.40;;
74487;SDS011;63019;51.080;13.642;2023-02-28T04:26:57;8.27;;;3.45;;
74487;SDS011;63019;51.080;13.642;2023-02-28T04:27:59;9.35;;;3.72;;
74487;SDS011;63019;51.080;13.642;2023-02-28T04:29:02;9.43;;;3.80;;
74487;SDS011;63019;51.080;13.642;2023-02-28T04:30:05;10.82;;;3.70;;
74487;SDS011;63019;51.080;13.642;2023-02-28T04:31:08;7.68;;;3.22;;
74487;SDS011;63019;51.080;13.642;2023-02-28T04:32:10;8.40;;;3.60;;
74487;SDS011;63019;51.080;13.642;2023-02-28T04:33:12;6.50;;;3.25;;
74487;SDS011;63019;51.080;13.642;2023-02-28T04:34:14;8.38;;;3.72;;
74487;SDS011;63019;51.080;13.642;2023-02-28T04:35:16;8.70;;;3.78;;
74487;SDS011;63019;51.080;13.642;2023-02-28T04:36:18;9.83;;;3.50;;
74487;SDS011;63019;51.080;13.642;2023-02-28T04:37:20;9.82;;;3.92;;
74487;SDS011;63019;51.080;13.642;2023-02-28T04:38:22;8.00;;;3.40;;
74487;SDS011;63019;51.080;13.642;2023-02-28T04:39:24;8.45;;;3.80;;
74487;SDS011;63019;51.080;13.642;2023-02-28T04:40:26;7.93;;;4.30;;
74487;SDS011;63019;51.080;13.642;2023-02-28T04:41:27;9.18;;;3.88;;
74487;SDS011;63019;51.080;13.642;2023-02-28T04:42:32;8.70;;;3.35;;
74487;SDS011;63019;51.080;13.642;2023-02-28T04:43:36;10.07;;;3.75;;
74487;SDS011;63019;51.080;13.642;2023-02-28T04:44:38;8.77;;;3.47;;
74487;SDS011;63019;51.080;13.642;2023-02-28T04:45:40;8.77;;;3.67;;
74487;SDS011;63019;51.080;13.642;2023-02-28T04:46:42;8.97;;;3.43;;
74487;SDS011;63019;51.080;13.642;2023-02-28T04:47:44;8.60;;;3.50;;
74487;SDS011;63019;51.080;13.642;2023-02-28T04:48:46;7.80;;;3.47;;
74487;SDS011;63019;51.080;13.642;2023-02-28T04:49:48;9.05;;;3.58;;
74487;SDS011;63019;51.080;13.642;2023-02-28T04:50:50;7.82;;;3.63;;
74487;SDS011;63019;51.080;13.642;2023-02-28T04:51:52;8.63;;;3.88;;
74487;SDS011;63019;51.080;13.642;2023-02-28T04:52:54;9.70;;;3.83;;
74487;SDS011;63019;51.080;13.642;2023-02-28T04:53:56;10.45;;;3.83;;
74487;SDS011;63019;51.080;13.642;2023-02-28T04:54:57;9.15;;;3.97;;
74487;SDS011;63019;51.080;13.642;2023-02-28T04:55:59;8.43;;;3.47;;
74487;SDS011;63019;51.080;13.642;2023-02-28T04:57:01;7.73;;;3.30;;
74487;SDS011;63019;51.080;13.642;2023-02-28T04:58:03;7.70;;;3.60;;
74487;SDS011;63019;51.080;13.642;2023-02-28T04:59:05;8.60;;;3.70;;
74487;SDS011;63019;51.080;13.642;2023-02-28T05:00:07;8.15;;;3.55;;
74487;SDS011;63019;51.080;13.642;2023-02-28T05:01:21;10.50;;;3.53;;
74487;SDS011;63019;51.080;13.642;2023-02-28T05:02:28;13.70;;;3.95;;
74487;SDS011;63019;51.080;13.642;2023-02-28T05:03:29;9.93;;;3.65;;
74487;SDS011;63019;51.080;13.642;2023-02-28T05:04:34;10.45;;;4.10;;
74487;SDS011;63019;51.080;13.642;2023-02-28T05:05:35;8.90;;;3.65;;
74487;SDS011;63019;51.080;13.642;2023-02-28T05:06:37;8.88;;;4.00;;
74487;SDS011;63019;51.080;13.642;2023-02-28T05:07:39;9.50;;;4.40;;
74487;SDS011;63019;51.080;13.642;2023-02-28T05:08:41;13.80;;;3.72;;
74487;SDS011;63019;51.080;13.642;2023-02-28T05:09:43;8.50;;;3.83;;
74487;SDS011;63019;51.080;13.642;2023-02-28T05:10:44;8.25;;;3.95;;
74487;SDS011;63019;51.080;13.642;2023-02-28T05:11:46;11.20;;;4.13;;
74487;SDS011;63019;51.080;13.642;2023-02-28T05:12:48;13.15;;;4.70;;
74487;SDS011;63019;51.080;13.642;2023-02-28T05:13:50;14.27;;;4.22;;
74487;SDS011;63019;51.080;13.642;2023-02-28T05:14:53;13.93;;;4.50;;
74487;SDS011;63019;51.080;13.642;2023-02-28T05:15:55;12.70;;;4.00;;
74487;SDS011;63019;51.080;13.642;2023-02-28T05:16:57;9.10;;;3.88;;
74487;SDS011;63019;51.080;13.642;2023-02-28T05:17:59;10.87;;;4.00;;
74487;SDS011;63019;51.080;13.642;2023-02-28T05:19:00;9.93;;;4.15;;
74487;SDS011;63019;51.080;13.642;2023-02-28T05:20:02;11.00;;;4.55;;
74487;SDS011;63019;51.080;13.642;2023-02-28T05:21:31;10.05;;;3.90;;
74487;SDS011;63019;51.080;13.642;2023-02-28T05:22:35;9.88;;;3.90;;
74487;SDS011;63019;51.080;13.642;2023-02-28T05:23:36;12.95;;;4.68;;
74487;SDS011;63019;51.080;13.642;2023-02-28T05:24:38;15.00;;;4.18;;
74487;SDS011;63019;51.080;13.642;2023-02-28T05:25:40;8.98;;;4.50;;
74487;SDS011;63019;51.080;13.642;2023-02-28T05:26:42;10.40;;;4.40;;
74487;SDS011;63019;51.080;13.642;2023-02-28T05:27:44;10.90;;;4.00;;
74487;SDS011;63019;51.080;13.642;2023-02-28T05:28:46;12.13;;;4.90;;
74487;SDS011;63019;51.080;13.642;2023-02-28T05:29:47;13.32;;;4.72;;
74487;SDS011;63019;51.080;13.642;2023-02-28T05:30:49;13.57;;;5.15;;
74487;SDS011;63019;51.080;13.642;2023-02-28T05:31:51;13.07;;;4.55;;
74487;SDS011;63019;51.080;13.642;2023-02-28T05:32:53;11.30;;;4.88;;
74487;SDS011;63019;51.080;13.642;2023-02-28T05:33:55;14.90;;;4.35;;
74487;SDS011;63019;51.080;13.642;2023-02-28T05:34:57;9.10;;;4.20;;
74487;SDS011;63019;51.080;13.642;2023-02-28T05:35:58;9.73;;;4.18;;
74487;SDS011;63019;51.080;13.642;2023-02-28T05:37:00;8.63;;;3.95;;
74487;SDS011;63019;51.080;13.642;2023-02-28T05:38:02;9.13;;;4.20;;
74487;SDS011;63019;51.080;13.642;2023-02-28T05:39:07;14.97;;;4.27;;
74487;SDS011;63019;51.080;13.642;2023-02-28T05:40:13;11.63;;;4.60;;
74487;SDS011;63019;51.080;13.642;2023-02-28T05:41:16;9.73;;;4.35;;
74487;SDS011;63019;51.080;13.642;2023-02-28T05:42:20;10.45;;;4.43;;
74487;SDS011;63019;51.080;13.642;2023-02-28T05:43:22;11.38;;;4.53;;
74487;SDS011;63019;51.080;13.642;2023-02-28T05:44:24;12.48;;;4.57;;
74487;SDS011;63019;51.080;13.642;2023-02-28T05:45:26;11.40;;;4.40;;
74487;SDS011;63019;51.080;13.642;2023-02-28T05:46:28;12.13;;;4.32;;
74487;SDS011;63019;51.080;13.642;2023-02-28T05:47:30;12.35;;;4.40;;
74487;SDS011;63019;51.080;13.642;2023-02-28T05:48:32;13.30;;;5.00;;
74487;SDS011;63019;51.080;13.642;2023-02-28T05:49:35;11.90;;;4.50;;
74487;SDS011;63019;51.080;13.642;2023-02-28T05:50:37;11.38;;;4.88;;
74487;SDS011;63019;51.080;13.642;2023-02-28T05:51:39;9.82;;;4.63;;
74487;SDS011;63019;51.080;13.642;2023-02-28T05:52:41;10.60;;;4.63;;
74487;SDS011;63019;51.080;13.642;2023-02-28T05:53:43;12.77;;;4.95;;
74487;SDS011;63019;51.080;13.642;2023-02-28T05:54:46;9.52;;;4.50;;
74487;SDS011;63019;51.080;13.642;2023-02-28T05:55:47;10.70;;;5.10;;
74487;SDS011;63019;51.080;13.642;2023-02-28T05:56:49;11.00;;;4.50;;
74487;SDS011;63019;51.080;13.642;2023-02-28T05:57:51;10.93;;;4.72;;
74487;SDS011;63019;51.080;13.642;2023-02-28T05:58:53;15.02;;;5.28;;
74487;SDS011;63019;51.080;13.642;2023-02-28T05:59:54;12.73;;;4.80;;
74487;SDS011;63019;51.080;13.642;2023-02-28T06:00:57;14.38;;;4.63;;
74487;SDS011;63019;51.080;13.642;2023-02-28T06:01:59;9.25;;;4.63;;
74487;SDS011;63019;51.080;13.642;2023-02-28T06:03:01;10.75;;;4.50;;
74487;SDS011;63019;51.080;13.642;2023-02-28T06:04:04;13.48;;;4.70;;
74487;SDS011;63019;51.080;13.642;2023-02-28T06:05:09;10.57;;;4.60;;
74487;SDS011;63019;51.080;13.642;2023-02-28T06:06:15;12.52;;;4.55;;
74487;SDS011;63019;51.080;13.642;2023-02-28T06:07:17;10.93;;;5.05;;
74487;SDS011;63019;51.080;13.642;2023-02-28T06:08:19;14.15;;;4.93;;
74487;SDS011;63019;51.080;13.642;2023-02-28T06:09:21;15.73;;;4.68;;
74487;SDS011;63019;51.080;13.642;2023-02-28T06:10:23;11.90;;;4.80;;
74487;SDS011;63019;51.080;13.642;2023-02-28T06:11:24;13.77;;;5.00;;
74487;SDS011;63019;51.080;13.642;2023-02-28T06:12:29;13.13;;;5.18;;
74487;SDS011;63019;51.080;13.642;2023-02-28T06:13:30;11.93;;;5.15;;
74487;SDS011;63019;51.080;13.642;2023-02-28T06:14:33;12.05;;;5.22;;
74487;SDS011;63019;51.080;13.642;2023-02-28T06:15:35;13.00;;;5.20;;
74487;SDS011;63019;51.080;13.642;2023-02-28T06:16:37;12.35;;;5.20;;
74487;SDS011;63019;51.080;13.642;2023-02-28T06:17:39;11.63;;;5.38;;
74487;SDS011;63019;51.080;13.642;2023-02-28T06:18:44;14.10;;;5.60;;
74487;SDS011;63019;51.080;13.642;2023-02-28T06:19:46;12.77;;;5.55;;
74487;SDS011;63019;51.080;13.642;2023-02-28T06:20:52;10.87;;;5.13;;
74487;SDS011;63019;51.080;13.642;2023-02-28T06:21:56;12.40;;;5.60;;
74487;SDS011;63019;51.080;13.642;2023-02-28T06:22:58;14.35;;;5.65;;
74487;SDS011;63019;51.080;13.642;2023-02-28T06:24:00;11.27;;;5.00;;
74487;SDS011;63019;51.080;13.642;2023-02-28T06:25:03;15.13;;;5.50;;
74487;SDS011;63019;51.080;13.642;2023-02-28T06:26:06;10.88;;;4.85;;
74487;SDS011;63019;51.080;13.642;2023-02-28T06:27:08;11.88;;;5.07;;
74487;SDS011;63019;51.080;13.642;2023-02-28T06:28:10;10.63;;;5.05;;
74487;SDS011;63019;51.080;13.642;2023-02-28T06:29:12;11.48;;;5.07;;
74487;SDS011;63019;51.080;13.642;2023-02-28T06:30:18;11.32;;;5.35;;
74487;SDS011;63019;51.080;13.642;2023-02-28T06:31:20;11.80;;;5.17;;
74487;SDS011;63019;51.080;13.642;2023-02-28T06:32:23;11.90;;;5.35;;
74487;SDS011;63019;51.080;13.642;2023-02-28T06:33:25;11.32;;;5.07;;
74487;SDS011;63019;51.080;13.642;2023-02-28T06:34:26;15.85;;;5.88;;
74487;SDS011;63019;51.080;13.642;2023-02-28T06:35:29;12.65;;;5.15;;
74487;SDS011;63019;51.080;13.642;2023-02-28T06:36:30;11.20;;;5.35;;
74487;SDS011;63019;51.080;13.642;2023-02-28T06:37:32;12.70;;;5.25;;
74487;SDS011;63019;51.080;13.642;2023-02-28T06:38:34;12.45;;;5.40;;
74487;SDS011;63019;51.080;13.642;2023-02-28T06:39:36;15.30;;;5.10;;
74487;SDS011;63019;51.080;13.642;2023-02-28T06:40:38;9.82;;;4.80;;
74487;SDS011;63019;51.080;13.642;2023-02-28T06:41:39;16.40;;;5.40;;
74487;SDS011;63019;51.080;13.642;2023-02-28T06:42:54;12.05;;;5.43;;
74487;SDS011;63019;51.080;13.642;2023-02-28T06:43:56;10.32;;;5.15;;
74487;SDS011;63019;51.080;13.642;2023-02-28T06:44:58;12.45;;;5.18;;
74487;SDS011;63019;51.080;13.642;2023-02-28T06:46:01;14.85;;;5.03;;
74487;SDS011;63019;51.080;13.642;2023-02-28T06:47:05;12.55;;;4.90;;
74487;SDS011;63019;51.080;13.642;2023-02-28T06:48:07;15.38;;;5.07;;
74487;SDS011;63019;51.080;13.642;2023-02-28T06:49:09;11.30;;;5.15;;
74487;SDS011;63019;51.080;13.642;2023-02-28T06:50:12;11.25;;;4.70;;
74487;SDS011;63019;51.080;13.642;2023-02-28T06:51:18;16.17;;;5.20;;
74487;SDS011;63019;51.080;13.642;2023-02-28T06:52:23;13.67;;;5.00;;
74487;SDS011;63019;51.080;13.642;2023-02-28T06:53:24;11.52;;;4.85;;
74487;SDS011;63019;51.080;13.642;2023-02-28T06:54:26;15.43;;;5.25;;
74487;SDS011;63019;51.080;13.642;2023-02-28T06:55:28;13.95;;;4.95;;
74487;SDS011;63019;51.080;13.642;2023-02-28T06:56:31;10.45;;;4.35;;
74487;SDS011;63019;51.080;13.642;2023-02-28T06:57:33;12.43;;;5.63;;
74487;SDS011;63019;51.080;13.642;2023-02-28T06:58:36;13.02;;;5.00;;
74487;SDS011;63019;51.080;13.642;2023-02-28T06:59:38;12.10;;;5.10;;
74487;SDS011;63019;51.080;13.642;2023-02-28T07:00:41;11.68;;;5.30;;
74487;SDS011;63019;51.080;13.642;2023-02-28T07:01:43;16.02;;;5.18;;
74487;SDS011;63019;51.080;13.642;2023-02-28T07:02:45;13.60;;;4.63;;